Arlington, Texas
Current Conditions -  °F | °C
As of 6:35 AM on Thursday 23 Oct 2014 (Local Time) from KGPM Reporting Station
Scattered Clouds Scattered Clouds  
Wind Chill: 65°   Ceiling: Unl
Heat Index: 65°   Visibility: 10mi
Dew Point: 55°   Wind: 3mph
Humidity: 70%   Direction: 120°ESE
Pressure: 30.14"   Gusts: NA
Location:  32.74°N, 97.11°W
Report Text: KGPM 231135Z AUTO 12003KT 10SM SCT065 SCT085 18/13 A3014 RMK AO2 T01840129
Loading
Personal Weather Stations






























Interactive Weather Map
Tropical Storm Tracking
New forecast layout! Learn more

10-Day Weather Forecast

Advertisements
Track Severe Weather on mobile